Delta Junction, AK (99737)

10:02 PM AKDT on September 03, 2015 (GMT -0800)
AK_Meso | | Change Station
CLOSE
Current Station
Personal Weather Station
Location: Delta Junction, AK
Elevation: 1381 ft
Nearby Weather Stations

Elev 1381 ft 63.94 °N, 145.60 °W | Updated 37 minutes ago

Clear
Clear
47 °F
Feels Like 47 °F
N
0
Wind Variable Wind from SE
Gusts 2.0 mph

Today
High -- | Low -- °F
--% Chance of Precip.
Yesterday
High -- | Low -- °F
Precip. -- in
6:30 AM 8:50 PM
Waning Gibbous, 63% visible
Pressure 29.86 in
Visibility 10.0 miles
Clouds Clear
Windchill 47 °F
Dew Point 38 °F
Humidity 72%
Rainfall in
Snow Depth Not available.
UV 0 out of 12
Pollen Not available.
Air Quality Not available.
Flu Activity Not available.
METAR PABI 040553Z AUTO 14006KT 10SM CLR 12/03 A2983 RMK AO2 SLP109 T01220033 10167 20117 55003 TSNO
Pressure 29.86 in
Visibility 10.0 miles
Clouds Clear
Windchill 47 °F
Dew Point 38 °F
Humidity 72%
Rainfall in
Snow Depth Not available.
UV 0 out of 12
Pollen Not available.
Air Quality Not available.
Flu Activity Not available.
METAR PABI 040553Z AUTO 14006KT 10SM CLR 12/03 A2983 RMK AO2 SLP109 T01220033 10167 20117 55003 TSNO

10-Day Weather Forecast

×

Almanac

Astronomy

Sep. 03, 2015 Rise Set
Actual Time
Civil Twilight
Nautical Twilight
Astronomical Twilight
Moon
Length of Visible Light
Length of Day
Tomorrow will be .
, % of the Moon is Illuminated

Today's Extremes

State Highs State Lows

Community

WunderPhotos

Upload Photos

1,852,132 photos uploaded!

WunderBlogs® & News

Nearby

Air Quality

  Air Quality AQ Index Pollutant
Not available.

Snow Depth

Station Depth Elevation

Earthquake Activity

City Distance Mag. Time & Date
Minimum magnitude displayed is 2.5.

Coastal Water Temperatures

Place Temperature

Stations

Nearby Weather Stations

Station Location Temp. Windchill Dew Point Humidity Wind Precip. Elev Updated Type